sensor_id;sensor_type;location;lat;lon;timestamp;P1;durP1;ratioP1;P2;durP2;ratioP2
35745;SDS011;21870;42.812;74.628;2022-10-16T00:01:53;16.30;;;7.35;;
35745;SDS011;21870;42.812;74.628;2022-10-16T00:04:19;13.18;;;6.65;;
35745;SDS011;21870;42.812;74.628;2022-10-16T00:06:45;12.50;;;6.95;;
35745;SDS011;21870;42.812;74.628;2022-10-16T00:09:11;10.32;;;6.20;;
35745;SDS011;21870;42.812;74.628;2022-10-16T00:11:38;10.63;;;6.13;;
35745;SDS011;21870;42.812;74.628;2022-10-16T00:14:12;11.15;;;5.68;;
35745;SDS011;21870;42.812;74.628;2022-10-16T00:16:39;11.63;;;6.07;;
35745;SDS011;21870;42.812;74.628;2022-10-16T00:19:06;14.60;;;6.07;;
35745;SDS011;21870;42.812;74.628;2022-10-16T00:21:32;13.05;;;5.93;;
35745;SDS011;21870;42.812;74.628;2022-10-16T00:24:00;8.35;;;5.75;;
35745;SDS011;21870;42.812;74.628;2022-10-16T00:26:31;11.07;;;6.18;;
35745;SDS011;21870;42.812;74.628;2022-10-16T00:28:59;12.02;;;5.70;;
35745;SDS011;21870;42.812;74.628;2022-10-16T00:31:25;10.95;;;5.90;;
35745;SDS011;21870;42.812;74.628;2022-10-16T00:33:52;14.85;;;6.28;;
35745;SDS011;21870;42.812;74.628;2022-10-16T00:36:19;16.23;;;6.93;;
35745;SDS011;21870;42.812;74.628;2022-10-16T00:38:47;11.77;;;6.70;;
35745;SDS011;21870;42.812;74.628;2022-10-16T00:41:16;12.10;;;6.47;;
35745;SDS011;21870;42.812;74.628;2022-10-16T00:43:47;10.65;;;5.93;;
35745;SDS011;21870;42.812;74.628;2022-10-16T00:46:21;11.80;;;7.00;;
35745;SDS011;21870;42.812;74.628;2022-10-16T00:48:52;11.98;;;6.28;;
35745;SDS011;21870;42.812;74.628;2022-10-16T00:51:35;13.25;;;6.65;;
35745;SDS011;21870;42.812;74.628;2022-10-16T00:54:10;17.10;;;5.90;;
35745;SDS011;21870;42.812;74.628;2022-10-16T00:56:41;15.60;;;6.75;;
35745;SDS011;21870;42.812;74.628;2022-10-16T00:59:14;16.73;;;6.53;;
35745;SDS011;21870;42.812;74.628;2022-10-16T01:01:46;14.70;;;6.20;;
35745;SDS011;21870;42.812;74.628;2022-10-16T01:04:12;10.23;;;5.85;;
35745;SDS011;21870;42.812;74.628;2022-10-16T01:09:17;14.55;;;6.78;;
35745;SDS011;21870;42.812;74.628;2022-10-16T01:12:22;10.60;;;6.53;;
35745;SDS011;21870;42.812;74.628;2022-10-16T01:18:16;15.73;;;7.53;;
35745;SDS011;21870;42.812;74.628;2022-10-16T01:20:58;12.10;;;6.50;;
35745;SDS011;21870;42.812;74.628;2022-10-16T01:29:18;13.13;;;6.55;;
35745;SDS011;21870;42.812;74.628;2022-10-16T01:31:37;13.50;;;6.50;;
35745;SDS011;21870;42.812;74.628;2022-10-16T01:34:08;14.27;;;8.07;;
35745;SDS011;21870;42.812;74.628;2022-10-16T01:37:18;13.43;;;6.60;;
35745;SDS011;21870;42.812;74.628;2022-10-16T01:39:40;13.80;;;6.95;;
35745;SDS011;21870;42.812;74.628;2022-10-16T01:44:39;14.60;;;9.35;;
35745;SDS011;21870;42.812;74.628;2022-10-16T01:47:08;18.25;;;7.72;;
35745;SDS011;21870;42.812;74.628;2022-10-16T01:49:37;17.50;;;7.57;;
35745;SDS011;21870;42.812;74.628;2022-10-16T01:52:06;28.90;;;8.77;;
35745;SDS011;21870;42.812;74.628;2022-10-16T01:54:40;19.23;;;9.70;;
35745;SDS011;21870;42.812;74.628;2022-10-16T01:57:11;20.30;;;9.07;;
35745;SDS011;21870;42.812;74.628;2022-10-16T01:59:41;20.60;;;8.40;;
35745;SDS011;21870;42.812;74.628;2022-10-16T02:02:11;14.10;;;7.93;;
35745;SDS011;21870;42.812;74.628;2022-10-16T02:04:45;11.75;;;6.82;;
35745;SDS011;21870;42.812;74.628;2022-10-16T02:07:17;22.10;;;7.82;;
35745;SDS011;21870;42.812;74.628;2022-10-16T02:09:43;15.13;;;7.50;;
35745;SDS011;21870;42.812;74.628;2022-10-16T02:12:11;22.58;;;6.97;;
35745;SDS011;21870;42.812;74.628;2022-10-16T02:14:59;18.42;;;7.47;;
35745;SDS011;21870;42.812;74.628;2022-10-16T02:17:25;18.83;;;7.53;;
35745;SDS011;21870;42.812;74.628;2022-10-16T02:19:52;17.90;;;9.52;;
35745;SDS011;21870;42.812;74.628;2022-10-16T02:25:08;20.92;;;8.52;;
35745;SDS011;21870;42.812;74.628;2022-10-16T02:27:55;16.52;;;7.25;;
35745;SDS011;21870;42.812;74.628;2022-10-16T02:33:09;15.93;;;7.82;;
35745;SDS011;21870;42.812;74.628;2022-10-16T02:35:38;18.35;;;7.43;;
35745;SDS011;21870;42.812;74.628;2022-10-16T02:38:07;20.92;;;7.63;;
35745;SDS011;21870;42.812;74.628;2022-10-16T02:40:34;23.25;;;9.80;;
35745;SDS011;21870;42.812;74.628;2022-10-16T02:43:03;32.45;;;11.30;;
35745;SDS011;21870;42.812;74.628;2022-10-16T02:45:30;23.60;;;12.85;;
35745;SDS011;21870;42.812;74.628;2022-10-16T02:47:56;21.13;;;13.60;;
35745;SDS011;21870;42.812;74.628;2022-10-16T02:50:22;31.83;;;14.38;;
35745;SDS011;21870;42.812;74.628;2022-10-16T02:52:50;32.78;;;16.48;;
35745;SDS011;21870;42.812;74.628;2022-10-16T02:55:16;25.83;;;16.08;;
35745;SDS011;21870;42.812;74.628;2022-10-16T02:57:42;30.30;;;17.35;;
35745;SDS011;21870;42.812;74.628;2022-10-16T03:00:09;44.20;;;17.52;;
35745;SDS011;21870;42.812;74.628;2022-10-16T03:02:37;34.83;;;17.08;;
35745;SDS011;21870;42.812;74.628;2022-10-16T03:05:03;38.63;;;17.38;;
35745;SDS011;21870;42.812;74.628;2022-10-16T03:07:30;33.45;;;15.27;;
35745;SDS011;21870;42.812;74.628;2022-10-16T03:09:56;29.52;;;14.25;;
35745;SDS011;21870;42.812;74.628;2022-10-16T03:12:25;34.53;;;14.20;;
35745;SDS011;21870;42.812;74.628;2022-10-16T03:14:52;38.13;;;14.68;;
35745;SDS011;21870;42.812;74.628;2022-10-16T03:17:18;56.90;;;17.80;;
35745;SDS011;21870;42.812;74.628;2022-10-16T03:19:44;49.17;;;13.98;;
35745;SDS011;21870;42.812;74.628;2022-10-16T03:22:11;43.60;;;13.48;;
35745;SDS011;21870;42.812;74.628;2022-10-16T03:24:37;40.28;;;11.48;;
35745;SDS011;21870;42.812;74.628;2022-10-16T03:27:03;29.67;;;11.65;;
35745;SDS011;21870;42.812;74.628;2022-10-16T03:29:29;29.55;;;12.05;;
35745;SDS011;21870;42.812;74.628;2022-10-16T03:31:56;20.90;;;11.95;;
35745;SDS011;21870;42.812;74.628;2022-10-16T03:34:22;33.95;;;13.88;;
35745;SDS011;21870;42.812;74.628;2022-10-16T03:36:48;38.63;;;11.27;;
35745;SDS011;21870;42.812;74.628;2022-10-16T03:39:14;33.55;;;12.25;;
35745;SDS011;21870;42.812;74.628;2022-10-16T03:41:40;35.65;;;12.77;;
35745;SDS011;21870;42.812;74.628;2022-10-16T03:44:06;33.92;;;12.68;;
35745;SDS011;21870;42.812;74.628;2022-10-16T03:46:32;27.35;;;10.07;;
35745;SDS011;21870;42.812;74.628;2022-10-16T03:48:58;27.00;;;11.27;;
35745;SDS011;21870;42.812;74.628;2022-10-16T03:51:24;17.70;;;9.55;;
35745;SDS011;21870;42.812;74.628;2022-10-16T03:53:51;24.38;;;8.88;;
35745;SDS011;21870;42.812;74.628;2022-10-16T03:56:17;26.42;;;8.70;;
35745;SDS011;21870;42.812;74.628;2022-10-16T03:58:43;25.17;;;10.98;;
35745;SDS011;21870;42.812;74.628;2022-10-16T04:01:09;37.75;;;9.75;;
35745;SDS011;21870;42.812;74.628;2022-10-16T04:03:35;24.02;;;9.57;;
35745;SDS011;21870;42.812;74.628;2022-10-16T04:06:01;27.50;;;10.13;;
35745;SDS011;21870;42.812;74.628;2022-10-16T04:08:27;30.50;;;9.70;;
35745;SDS011;21870;42.812;74.628;2022-10-16T04:10:54;33.70;;;9.80;;
35745;SDS011;21870;42.812;74.628;2022-10-16T04:13:20;29.58;;;9.80;;
35745;SDS011;21870;42.812;74.628;2022-10-16T04:15:46;25.73;;;9.30;;
35745;SDS011;21870;42.812;74.628;2022-10-16T04:18:12;27.63;;;9.70;;
35745;SDS011;21870;42.812;74.628;2022-10-16T04:20:38;27.63;;;8.52;;
35745;SDS011;21870;42.812;74.628;2022-10-16T04:23:04;20.30;;;8.07;;
35745;SDS011;21870;42.812;74.628;2022-10-16T04:25:30;23.85;;;9.38;;
35745;SDS011;21870;42.812;74.628;2022-10-16T04:27:59;20.23;;;9.98;;
35745;SDS011;21870;42.812;74.628;2022-10-16T04:30:25;32.60;;;18.38;;
35745;SDS011;21870;42.812;74.628;2022-10-16T04:32:52;28.58;;;13.57;;
35745;SDS011;21870;42.812;74.628;2022-10-16T04:35:19;21.70;;;9.05;;
35745;SDS011;21870;42.812;74.628;2022-10-16T04:37:45;20.35;;;9.77;;
35745;SDS011;21870;42.812;74.628;2022-10-16T04:40:12;25.67;;;9.85;;
35745;SDS011;21870;42.812;74.628;2022-10-16T04:42:38;19.65;;;9.57;;
35745;SDS011;21870;42.812;74.628;2022-10-16T04:45:05;21.08;;;9.48;;
35745;SDS011;21870;42.812;74.628;2022-10-16T04:47:33;23.50;;;9.82;;
35745;SDS011;21870;42.812;74.628;2022-10-16T04:49:59;28.35;;;9.45;;
35745;SDS011;21870;42.812;74.628;2022-10-16T04:52:27;27.70;;;9.52;;
35745;SDS011;21870;42.812;74.628;2022-10-16T04:54:53;23.10;;;9.38;;
35745;SDS011;21870;42.812;74.628;2022-10-16T04:57:21;19.35;;;8.18;;
35745;SDS011;21870;42.812;74.628;2022-10-16T04:59:47;24.10;;;9.65;;
35745;SDS011;21870;42.812;74.628;2022-10-16T05:02:13;23.27;;;8.35;;
35745;SDS011;21870;42.812;74.628;2022-10-16T05:04:39;21.45;;;9.60;;
35745;SDS011;21870;42.812;74.628;2022-10-16T05:07:05;22.45;;;9.73;;
35745;SDS011;21870;42.812;74.628;2022-10-16T05:09:31;25.20;;;8.80;;
35745;SDS011;21870;42.812;74.628;2022-10-16T05:11:58;16.83;;;7.95;;
35745;SDS011;21870;42.812;74.628;2022-10-16T05:14:24;16.30;;;8.05;;
35745;SDS011;21870;42.812;74.628;2022-10-16T05:16:50;19.58;;;8.13;;
35745;SDS011;21870;42.812;74.628;2022-10-16T05:19:16;36.25;;;10.38;;
35745;SDS011;21870;42.812;74.628;2022-10-16T05:21:43;43.28;;;10.05;;
35745;SDS011;21870;42.812;74.628;2022-10-16T05:24:09;27.30;;;10.10;;
35745;SDS011;21870;42.812;74.628;2022-10-16T05:26:35;23.70;;;9.00;;
35745;SDS011;21870;42.812;74.628;2022-10-16T05:29:01;18.08;;;7.65;;
35745;SDS011;21870;42.812;74.628;2022-10-16T05:31:28;23.52;;;8.73;;
35745;SDS011;21870;42.812;74.628;2022-10-16T05:33:58;19.70;;;8.65;;
35745;SDS011;21870;42.812;74.628;2022-10-16T05:36:25;25.00;;;8.75;;
35745;SDS011;21870;42.812;74.628;2022-10-16T05:38:51;18.90;;;8.25;;
35745;SDS011;21870;42.812;74.628;2022-10-16T05:41:18;20.08;;;9.07;;
35745;SDS011;21870;42.812;74.628;2022-10-16T05:43:48;19.08;;;8.50;;
35745;SDS011;21870;42.812;74.628;2022-10-16T05:46:14;26.75;;;8.63;;
35745;SDS011;21870;42.812;74.628;2022-10-16T05:48:41;27.50;;;9.70;;
35745;SDS011;21870;42.812;74.628;2022-10-16T05:51:09;19.40;;;9.32;;
35745;SDS011;21870;42.812;74.628;2022-10-16T05:53:37;27.55;;;10.80;;
35745;SDS011;21870;42.812;74.628;2022-10-16T05:56:05;21.23;;;10.02;;
35745;SDS011;21870;42.812;74.628;2022-10-16T05:58:34;24.10;;;10.07;;
35745;SDS011;21870;42.812;74.628;2022-10-16T06:01:03;19.42;;;10.10;;
35745;SDS011;21870;42.812;74.628;2022-10-16T06:03:35;23.92;;;9.70;;
35745;SDS011;21870;42.812;74.628;2022-10-16T06:06:11;19.98;;;8.82;;
35745;SDS011;21870;42.812;74.628;2022-10-16T06:08:41;22.50;;;8.15;;
35745;SDS011;21870;42.812;74.628;2022-10-16T06:11:09;24.92;;;9.23;;
35745;SDS011;21870;42.812;74.628;2022-10-16T06:13:40;19.83;;;9.57;;
35745;SDS011;21870;42.812;74.628;2022-10-16T06:16:11;22.45;;;8.32;;
35745;SDS011;21870;42.812;74.628;2022-10-16T06:18:38;18.70;;;9.07;;
35745;SDS011;21870;42.812;74.628;2022-10-16T06:21:18;19.50;;;8.45;;
35745;SDS011;21870;42.812;74.628;2022-10-16T06:23:46;24.00;;;9.05;;
35745;SDS011;21870;42.812;74.628;2022-10-16T06:26:14;23.25;;;10.25;;
35745;SDS011;21870;42.812;74.628;2022-10-16T06:28:41;18.60;;;9.32;;
35745;SDS011;21870;42.812;74.628;2022-10-16T06:31:08;31.58;;;10.52;;
35745;SDS011;21870;42.812;74.628;2022-10-16T06:33:35;25.35;;;11.60;;
35745;SDS011;21870;42.812;74.628;2022-10-16T06:36:06;24.00;;;13.23;;
35745;SDS011;21870;42.812;74.628;2022-10-16T06:38:37;25.90;;;15.73;;
35745;SDS011;21870;42.812;74.628;2022-10-16T06:41:04;34.58;;;17.98;;
35745;SDS011;21870;42.812;74.628;2022-10-16T06:43:34;30.80;;;17.88;;
35745;SDS011;21870;42.812;74.628;2022-10-16T06:46:01;29.83;;;18.23;;
35745;SDS011;21870;42.812;74.628;2022-10-16T06:48:28;45.08;;;19.23;;
35745;SDS011;21870;42.812;74.628;2022-10-16T06:50:58;56.05;;;21.50;;
35745;SDS011;21870;42.812;74.628;2022-10-16T06:53:26;33.42;;;17.38;;
35745;SDS011;21870;42.812;74.628;2022-10-16T06:55:54;33.63;;;16.23;;
35745;SDS011;21870;42.812;74.628;2022-10-16T06:58:21;26.27;;;17.58;;
35745;SDS011;21870;42.812;74.628;2022-10-16T07:00:47;28.92;;;15.27;;
35745;SDS011;21870;42.812;74.628;2022-10-16T07:03:14;31.30;;;14.63;;
35745;SDS011;21870;42.812;74.628;2022-10-16T07:05:41;36.28;;;14.75;;
35745;SDS011;21870;42.812;74.628;2022-10-16T07:08:08;26.85;;;15.48;;
35745;SDS011;21870;42.812;74.628;2022-10-16T07:10:34;32.90;;;15.60;;
35745;SDS011;21870;42.812;74.628;2022-10-16T07:13:01;30.77;;;15.32;;
35745;SDS011;21870;42.812;74.628;2022-10-16T07:15:27;30.05;;;15.35;;
35745;SDS011;21870;42.812;74.628;2022-10-16T07:17:53;30.63;;;15.82;;
35745;SDS011;21870;42.812;74.628;2022-10-16T07:20:19;27.80;;;15.65;;
35745;SDS011;21870;42.812;74.628;2022-10-16T07:22:46;32.58;;;15.57;;
35745;SDS011;21870;42.812;74.628;2022-10-16T07:25:12;38.05;;;15.43;;
35745;SDS011;21870;42.812;74.628;2022-10-16T07:27:38;44.67;;;16.42;;
35745;SDS011;21870;42.812;74.628;2022-10-16T07:30:04;29.40;;;15.35;;
35745;SDS011;21870;42.812;74.628;2022-10-16T07:32:31;28.52;;;15.90;;
35745;SDS011;21870;42.812;74.628;2022-10-16T07:34:57;34.42;;;16.33;;
35745;SDS011;21870;42.812;74.628;2022-10-16T07:37:24;29.67;;;16.95;;
35745;SDS011;21870;42.812;74.628;2022-10-16T07:39:50;39.33;;;17.38;;
35745;SDS011;21870;42.812;74.628;2022-10-16T07:42:16;35.25;;;17.27;;
35745;SDS011;21870;42.812;74.628;2022-10-16T07:44:43;35.35;;;19.25;;
35745;SDS011;21870;42.812;74.628;2022-10-16T07:47:09;42.38;;;19.80;;
35745;SDS011;21870;42.812;74.628;2022-10-16T07:49:35;35.25;;;21.55;;
35745;SDS011;21870;42.812;74.628;2022-10-16T07:52:01;43.42;;;24.13;;
35745;SDS011;21870;42.812;74.628;2022-10-16T07:54:27;39.03;;;20.58;;
35745;SDS011;21870;42.812;74.628;2022-10-16T07:56:53;35.97;;;18.90;;
35745;SDS011;21870;42.812;74.628;2022-10-16T07:59:20;40.75;;;18.75;;
35745;SDS011;21870;42.812;74.628;2022-10-16T08:01:46;33.38;;;18.40;;
35745;SDS011;21870;42.812;74.628;2022-10-16T08:04:14;43.33;;;19.52;;
35745;SDS011;21870;42.812;74.628;2022-10-16T08:06:40;52.92;;;24.23;;
35745;SDS011;21870;42.812;74.628;2022-10-16T08:09:07;45.28;;;23.58;;
35745;SDS011;21870;42.812;74.628;2022-10-16T08:11:34;50.72;;;24.27;;
35745;SDS011;21870;42.812;74.628;2022-10-16T08:14:00;48.72;;;26.63;;
35745;SDS011;21870;42.812;74.628;2022-10-16T08:16:26;44.15;;;24.63;;
35745;SDS011;21870;42.812;74.628;2022-10-16T08:18:52;40.38;;;25.08;;
35745;SDS011;21870;42.812;74.628;2022-10-16T08:21:19;49.25;;;28.02;;
35745;SDS011;21870;42.812;74.628;2022-10-16T08:23:48;56.05;;;27.15;;
35745;SDS011;21870;42.812;74.628;2022-10-16T08:26:15;48.72;;;25.65;;
35745;SDS011;21870;42.812;74.628;2022-10-16T08:28:41;41.28;;;23.77;;
35745;SDS011;21870;42.812;74.628;2022-10-16T08:31:12;42.95;;;22.85;;
35745;SDS011;21870;42.812;74.628;2022-10-16T08:33:40;54.05;;;21.95;;
35745;SDS011;21870;42.812;74.628;2022-10-16T08:36:08;45.72;;;20.45;;
35745;SDS011;21870;42.812;74.628;2022-10-16T08:38:36;34.10;;;20.08;;
35745;SDS011;21870;42.812;74.628;2022-10-16T08:43:54;41.75;;;19.88;;
35745;SDS011;21870;42.812;74.628;2022-10-16T08:46:45;39.85;;;19.92;;
35745;SDS011;21870;42.812;74.628;2022-10-16T08:49:26;32.00;;;16.27;;
35745;SDS011;21870;42.812;74.628;2022-10-16T08:51:54;36.35;;;17.77;;
35745;SDS011;21870;42.812;74.628;2022-10-16T08:54:29;46.20;;;17.08;;
35745;SDS011;21870;42.812;74.628;2022-10-16T08:57:25;37.97;;;15.35;;
35745;SDS011;21870;42.812;74.628;2022-10-16T08:59:52;42.35;;;16.55;;
35745;SDS011;21870;42.812;74.628;2022-10-16T09:05:21;43.75;;;17.25;;
35745;SDS011;21870;42.812;74.628;2022-10-16T09:08:12;40.25;;;15.80;;
35745;SDS011;21870;42.812;74.628;2022-10-16T09:16:04;35.15;;;15.57;;
35745;SDS011;21870;42.812;74.628;2022-10-16T09:21:41;41.80;;;15.00;;
35745;SDS011;21870;42.812;74.628;2022-10-16T09:24:16;42.60;;;15.18;;
35745;SDS011;21870;42.812;74.628;2022-10-16T09:26:45;42.53;;;14.82;;
35745;SDS011;21870;42.812;74.628;2022-10-16T09:29:12;45.78;;;15.48;;
35745;SDS011;21870;42.812;74.628;2022-10-16T09:31:40;34.20;;;13.95;;
35745;SDS011;21870;42.812;74.628;2022-10-16T09:34:08;34.90;;;14.77;;
35745;SDS011;21870;42.812;74.628;2022-10-16T09:36:45;37.80;;;15.25;;
35745;SDS011;21870;42.812;74.628;2022-10-16T09:39:12;36.63;;;14.00;;
35745;SDS011;21870;42.812;74.628;2022-10-16T09:41:42;45.75;;;14.27;;
35745;SDS011;21870;42.812;74.628;2022-10-16T09:44:21;36.35;;;13.52;;
35745;SDS011;21870;42.812;74.628;2022-10-16T09:47:04;34.30;;;13.85;;
35745;SDS011;21870;42.812;74.628;2022-10-16T09:49:36;43.85;;;17.80;;
35745;SDS011;21870;42.812;74.628;2022-10-16T09:52:03;46.50;;;15.70;;
35745;SDS011;21870;42.812;74.628;2022-10-16T09:54:53;29.23;;;13.82;;
35745;SDS011;21870;42.812;74.628;2022-10-16T09:57:23;43.92;;;16.08;;
35745;SDS011;21870;42.812;74.628;2022-10-16T09:59:52;38.42;;;14.10;;
35745;SDS011;21870;42.812;74.628;2022-10-16T10:02:28;39.30;;;13.35;;
35745;SDS011;21870;42.812;74.628;2022-10-16T10:04:57;37.70;;;13.68;;
35745;SDS011;21870;42.812;74.628;2022-10-16T10:07:24;35.35;;;13.15;;
35745;SDS011;21870;42.812;74.628;2022-10-16T10:10:04;37.17;;;13.18;;
35745;SDS011;21870;42.812;74.628;2022-10-16T10:12:32;26.42;;;13.00;;
35745;SDS011;21870;42.812;74.628;2022-10-16T10:15:05;31.60;;;11.27;;
35745;SDS011;21870;42.812;74.628;2022-10-16T10:17:45;40.95;;;12.18;;
35745;SDS011;21870;42.812;74.628;2022-10-16T10:20:29;34.17;;;12.18;;
35745;SDS011;21870;42.812;74.628;2022-10-16T10:23:00;41.22;;;14.27;;
35745;SDS011;21870;42.812;74.628;2022-10-16T10:28:48;33.22;;;12.20;;
35745;SDS011;21870;42.812;74.628;2022-10-16T10:31:29;35.95;;;12.10;;
35745;SDS011;21870;42.812;74.628;2022-10-16T10:34:09;50.10;;;13.90;;
35745;SDS011;21870;42.812;74.628;2022-10-16T10:36:57;35.33;;;10.30;;
35745;SDS011;21870;42.812;74.628;2022-10-16T10:39:46;31.55;;;11.40;;
35745;SDS011;21870;42.812;74.628;2022-10-16T10:42:30;40.38;;;10.73;;
35745;SDS011;21870;42.812;74.628;2022-10-16T10:45:18;32.10;;;9.90;;
35745;SDS011;21870;42.812;74.628;2022-10-16T10:50:45;37.85;;;9.68;;
35745;SDS011;21870;42.812;74.628;2022-10-16T11:07:16;30.65;;;8.70;;
35745;SDS011;21870;42.812;74.628;2022-10-16T11:09:51;19.15;;;7.18;;
35745;SDS011;21870;42.812;74.628;2022-10-16T11:17:41;33.78;;;8.63;;
35745;SDS011;21870;42.812;74.628;2022-10-16T11:20:13;29.45;;;8.32;;
35745;SDS011;21870;42.812;74.628;2022-10-16T11:25:29;25.10;;;9.00;;
35745;SDS011;21870;42.812;74.628;2022-10-16T11:27:59;23.80;;;8.55;;
35745;SDS011;21870;42.812;74.628;2022-10-16T11:30:33;23.48;;;9.07;;
35745;SDS011;21870;42.812;74.628;2022-10-16T11:36:03;39.92;;;10.93;;
35745;SDS011;21870;42.812;74.628;2022-10-16T11:41:44;26.75;;;9.05;;
35745;SDS011;21870;42.812;74.628;2022-10-16T11:47:09;35.35;;;9.70;;
35745;SDS011;21870;42.812;74.628;2022-10-16T11:49:49;23.85;;;10.13;;
35745;SDS011;21870;42.812;74.628;2022-10-16T11:52:24;31.17;;;11.73;;
35745;SDS011;21870;42.812;74.628;2022-10-16T12:03:45;38.92;;;14.25;;
35745;SDS011;21870;42.812;74.628;2022-10-16T12:06:44;51.55;;;17.58;;
35745;SDS011;21870;42.812;74.628;2022-10-16T12:09:18;39.53;;;16.58;;
35745;SDS011;21870;42.812;74.628;2022-10-16T12:11:56;54.80;;;19.30;;
35745;SDS011;21870;42.812;74.628;2022-10-16T12:14:43;34.47;;;16.05;;
35745;SDS011;21870;42.812;74.628;2022-10-16T12:17:23;52.25;;;17.30;;
35745;SDS011;21870;42.812;74.628;2022-10-16T12:20:25;76.60;;;22.33;;
35745;SDS011;21870;42.812;74.628;2022-10-16T12:22:51;46.33;;;22.88;;
35745;SDS011;21870;42.812;74.628;2022-10-16T12:30:52;71.68;;;26.02;;
35745;SDS011;21870;42.812;74.628;2022-10-16T12:33:21;53.20;;;23.13;;
35745;SDS011;21870;42.812;74.628;2022-10-16T12:35:49;47.03;;;21.30;;
35745;SDS011;21870;42.812;74.628;2022-10-16T12:38:30;39.72;;;21.20;;
35745;SDS011;21870;42.812;74.628;2022-10-16T12:41:24;49.00;;;20.50;;
35745;SDS011;21870;42.812;74.628;2022-10-16T12:43:52;38.90;;;19.95;;
35745;SDS011;21870;42.812;74.628;2022-10-16T12:49:34;34.10;;;17.33;;
35745;SDS011;21870;42.812;74.628;2022-10-16T12:51:53;35.00;;;16.23;;
35745;SDS011;21870;42.812;74.628;2022-10-16T12:54:27;40.70;;;13.88;;
35745;SDS011;21870;42.812;74.628;2022-10-16T13:07:47;65.47;;;12.93;;
35745;SDS011;21870;42.812;74.628;2022-10-16T13:15:57;26.40;;;10.55;;
35745;SDS011;21870;42.812;74.628;2022-10-16T13:18:39;27.38;;;9.63;;
35745;SDS011;21870;42.812;74.628;2022-10-16T13:21:29;44.33;;;11.02;;
35745;SDS011;21870;42.812;74.628;2022-10-16T13:27:07;20.52;;;9.50;;
35745;SDS011;21870;42.812;74.628;2022-10-16T13:29:40;17.75;;;11.02;;
35745;SDS011;21870;42.812;74.628;2022-10-16T13:32:08;25.55;;;11.65;;
35745;SDS011;21870;42.812;74.628;2022-10-16T13:34:47;24.73;;;12.60;;
35745;SDS011;21870;42.812;74.628;2022-10-16T13:37:18;27.80;;;12.50;;
35745;SDS011;21870;42.812;74.628;2022-10-16T13:39:45;20.30;;;11.45;;
35745;SDS011;21870;42.812;74.628;2022-10-16T13:44:41;21.40;;;9.82;;
35745;SDS011;21870;42.812;74.628;2022-10-16T13:47:16;18.50;;;9.30;;
35745;SDS011;21870;42.812;74.628;2022-10-16T13:49:43;26.98;;;9.40;;
35745;SDS011;21870;42.812;74.628;2022-10-16T13:52:20;23.23;;;11.20;;
35745;SDS011;21870;42.812;74.628;2022-10-16T13:54:47;28.77;;;10.90;;
35745;SDS011;21870;42.812;74.628;2022-10-16T13:57:16;40.30;;;12.68;;
35745;SDS011;21870;42.812;74.628;2022-10-16T13:59:43;35.30;;;14.65;;
35745;SDS011;21870;42.812;74.628;2022-10-16T14:02:32;34.95;;;16.42;;
35745;SDS011;21870;42.812;74.628;2022-10-16T14:05:01;45.20;;;20.20;;
35745;SDS011;21870;42.812;74.628;2022-10-16T14:07:32;55.78;;;21.50;;
35745;SDS011;21870;42.812;74.628;2022-10-16T14:10:04;55.10;;;21.23;;
35745;SDS011;21870;42.812;74.628;2022-10-16T14:12:55;67.35;;;26.40;;
35745;SDS011;21870;42.812;74.628;2022-10-16T14:15:23;47.63;;;22.77;;
35745;SDS011;21870;42.812;74.628;2022-10-16T14:17:50;58.00;;;21.73;;
35745;SDS011;21870;42.812;74.628;2022-10-16T14:20:17;48.50;;;21.85;;
35745;SDS011;21870;42.812;74.628;2022-10-16T14:22:44;57.72;;;22.75;;
35745;SDS011;21870;42.812;74.628;2022-10-16T14:30:28;35.70;;;17.27;;
35745;SDS011;21870;42.812;74.628;2022-10-16T14:33:03;37.30;;;15.93;;
35745;SDS011;21870;42.812;74.628;2022-10-16T14:35:45;37.05;;;14.98;;
35745;SDS011;21870;42.812;74.628;2022-10-16T14:38:18;33.53;;;15.88;;
35745;SDS011;21870;42.812;74.628;2022-10-16T14:40:48;33.60;;;13.52;;
35745;SDS011;21870;42.812;74.628;2022-10-16T14:43:49;31.30;;;13.27;;
35745;SDS011;21870;42.812;74.628;2022-10-16T14:46:13;35.63;;;13.50;;
35745;SDS011;21870;42.812;74.628;2022-10-16T14:48:46;28.65;;;14.07;;
35745;SDS011;21870;42.812;74.628;2022-10-16T14:51:23;26.33;;;12.10;;
35745;SDS011;21870;42.812;74.628;2022-10-16T14:53:49;22.85;;;12.85;;
35745;SDS011;21870;42.812;74.628;2022-10-16T14:56:16;26.63;;;12.35;;
35745;SDS011;21870;42.812;74.628;2022-10-16T14:58:49;24.23;;;12.65;;
35745;SDS011;21870;42.812;74.628;2022-10-16T15:01:16;36.13;;;13.38;;
35745;SDS011;21870;42.812;74.628;2022-10-16T15:03:43;29.95;;;12.43;;
35745;SDS011;21870;42.812;74.628;2022-10-16T15:06:12;26.88;;;12.18;;
35745;SDS011;21870;42.812;74.628;2022-10-16T15:08:39;26.30;;;11.13;;
35745;SDS011;21870;42.812;74.628;2022-10-16T15:11:10;38.67;;;12.70;;
35745;SDS011;21870;42.812;74.628;2022-10-16T15:13:39;31.50;;;12.48;;
35745;SDS011;21870;42.812;74.628;2022-10-16T15:16:09;32.67;;;12.30;;
35745;SDS011;21870;42.812;74.628;2022-10-16T15:18:39;24.35;;;11.55;;
35745;SDS011;21870;42.812;74.628;2022-10-16T15:21:06;25.08;;;14.63;;
35745;SDS011;21870;42.812;74.628;2022-10-16T15:23:32;25.98;;;14.00;;
35745;SDS011;21870;42.812;74.628;2022-10-16T15:25:59;28.38;;;12.48;;
35745;SDS011;21870;42.812;74.628;2022-10-16T15:28:25;29.15;;;12.40;;
35745;SDS011;21870;42.812;74.628;2022-10-16T15:30:52;34.22;;;15.48;;
35745;SDS011;21870;42.812;74.628;2022-10-16T15:33:24;33.22;;;13.82;;
35745;SDS011;21870;42.812;74.628;2022-10-16T15:35:53;27.00;;;11.30;;
35745;SDS011;21870;42.812;74.628;2022-10-16T15:38:22;30.80;;;13.88;;
35745;SDS011;21870;42.812;74.628;2022-10-16T15:40:52;30.35;;;17.13;;
35745;SDS011;21870;42.812;74.628;2022-10-16T15:43:19;47.85;;;19.02;;
35745;SDS011;21870;42.812;74.628;2022-10-16T15:46:04;44.20;;;17.25;;
35745;SDS011;21870;42.812;74.628;2022-10-16T15:48:35;40.40;;;16.83;;
35745;SDS011;21870;42.812;74.628;2022-10-16T15:51:05;37.70;;;15.57;;
35745;SDS011;21870;42.812;74.628;2022-10-16T15:53:32;32.15;;;14.98;;
35745;SDS011;21870;42.812;74.628;2022-10-16T15:56:02;32.58;;;11.57;;
35745;SDS011;21870;42.812;74.628;2022-10-16T15:58:29;39.33;;;13.73;;
35745;SDS011;21870;42.812;74.628;2022-10-16T16:00:58;28.27;;;13.68;;
35745;SDS011;21870;42.812;74.628;2022-10-16T16:03:26;28.45;;;13.63;;
35745;SDS011;21870;42.812;74.628;2022-10-16T16:05:53;40.00;;;15.68;;
35745;SDS011;21870;42.812;74.628;2022-10-16T16:08:20;33.35;;;14.68;;
35745;SDS011;21870;42.812;74.628;2022-10-16T16:13:48;30.35;;;14.20;;
35745;SDS011;21870;42.812;74.628;2022-10-16T16:16:15;23.75;;;12.88;;
35745;SDS011;21870;42.812;74.628;2022-10-16T16:18:44;32.13;;;13.10;;
35745;SDS011;21870;42.812;74.628;2022-10-16T16:21:10;27.45;;;14.07;;
35745;SDS011;21870;42.812;74.628;2022-10-16T16:23:37;26.48;;;13.15;;
35745;SDS011;21870;42.812;74.628;2022-10-16T16:28:30;19.67;;;10.77;;
35745;SDS011;21870;42.812;74.628;2022-10-16T16:30:56;26.85;;;11.23;;
35745;SDS011;21870;42.812;74.628;2022-10-16T16:33:22;20.05;;;10.60;;